createdAt,value
2017-11-10T00:00:52.604Z,15.13
2017-11-10T00:03:20.295Z,17.20
2017-11-10T00:05:48.000Z,15.20
2017-11-10T00:08:15.656Z,15.47
2017-11-10T00:10:44.123Z,16.97
2017-11-10T00:13:12.548Z,16.30
2017-11-10T00:15:40.263Z,17.87
2017-11-10T00:18:08.696Z,17.77
2017-11-10T00:20:36.396Z,17.13
2017-11-10T00:23:04.828Z,17.20
2017-11-10T00:25:32.529Z,17.80
2017-11-10T00:28:00.955Z,18.50
2017-11-10T00:30:28.656Z,15.93
2017-11-10T00:32:56.324Z,16.30
2017-11-10T00:35:24.055Z,18.23
2017-11-10T00:37:51.712Z,16.87
2017-11-10T00:40:19.410Z,17.97
2017-11-10T00:42:47.837Z,18.83
2017-11-10T00:45:15.537Z,18.80
2017-11-10T00:47:43.205Z,18.47
2017-11-10T00:50:11.716Z,19.10
2017-11-10T00:52:39.413Z,18.33
2017-11-10T00:55:07.116Z,18.37
2017-11-10T00:57:35.551Z,17.60
2017-11-10T01:00:03.316Z,19.20
2017-11-10T01:02:30.966Z,18.97
2017-11-10T01:04:58.668Z,18.47
2017-11-10T01:07:27.088Z,17.40
2017-11-10T01:09:54.792Z,19.40
2017-11-10T01:12:22.456Z,19.70
2017-11-10T01:14:51.879Z,18.30
2017-11-10T01:17:19.539Z,18.63
2017-11-10T01:19:47.196Z,20.10
2017-11-10T01:22:16.680Z,19.50
2017-11-10T01:24:45.112Z,20.30
2017-11-10T01:27:12.806Z,19.07
2017-11-10T01:29:40.470Z,19.77
2017-11-10T01:32:08.953Z,18.57
2017-11-10T01:34:37.399Z,20.30
2017-11-10T01:37:05.143Z,19.37
2017-11-10T01:39:32.809Z,20.63
2017-11-10T01:42:00.561Z,20.40
2017-11-10T01:44:28.286Z,21.10
2017-11-10T01:46:55.998Z,21.33
2017-11-10T01:49:28.512Z,21.30
2017-11-10T01:51:57.053Z,18.97
2017-11-10T01:54:24.760Z,19.77
2017-11-10T01:56:53.313Z,20.83
2017-11-10T01:59:20.991Z,19.93
2017-11-10T02:01:51.453Z,19.67
2017-11-10T02:04:20.161Z,20.20
2017-11-10T02:06:47.900Z,19.03
2017-11-10T02:09:15.601Z,19.40
2017-11-10T02:11:43.328Z,21.37
2017-11-10T02:14:11.107Z,19.13
2017-11-10T02:16:38.968Z,20.20
2017-11-10T02:19:06.834Z,17.97
2017-11-10T02:21:34.697Z,19.73
2017-11-10T02:24:02.560Z,18.13
2017-11-10T02:26:30.424Z,19.73
2017-11-10T02:28:58.288Z,19.10
2017-11-10T02:31:26.049Z,20.10
2017-11-10T02:33:53.776Z,16.53
2017-11-10T02:36:21.518Z,17.53
2017-11-10T02:38:50.049Z,17.97
2017-11-10T02:41:17.783Z,17.50
2017-11-10T02:43:45.479Z,18.97
2017-11-10T02:46:13.193Z,18.70
2017-11-10T02:48:40.863Z,19.47
2017-11-10T02:51:08.599Z,19.30
2017-11-10T02:53:36.281Z,18.20
2017-11-10T02:56:04.179Z,19.13
2017-11-10T02:58:32.042Z,18.97
2017-11-10T03:00:59.904Z,19.07
2017-11-10T03:03:27.667Z,18.80
2017-11-10T03:05:55.665Z,19.80
2017-11-10T03:08:24.145Z,19.10
2017-11-10T03:10:52.675Z,20.97
2017-11-10T03:13:20.392Z,20.33
2017-11-10T03:15:48.925Z,19.97
2017-11-10T03:18:16.618Z,20.10
2017-11-10T03:20:44.454Z,20.37
2017-11-10T03:23:12.168Z,18.20
2017-11-10T03:25:39.893Z,20.67
2017-11-10T03:28:07.601Z,20.27
2017-11-10T03:30:35.320Z,19.30
2017-11-10T03:33:03.000Z,18.90
2017-11-10T03:35:31.488Z,19.30
2017-11-10T03:37:59.197Z,19.10
2017-11-10T03:40:26.892Z,20.50
2017-11-10T03:42:55.408Z,19.00
2017-11-10T03:45:23.111Z,19.43
2017-11-10T03:47:50.853Z,17.93
2017-11-10T03:50:18.519Z,18.37
2017-11-10T03:52:46.218Z,20.33
2017-11-10T03:55:14.667Z,19.90
2017-11-10T03:57:42.388Z,18.00
2017-11-10T04:00:10.108Z,19.20
2017-11-10T04:02:38.599Z,19.57
2017-11-10T04:05:07.047Z,17.90
2017-11-10T04:07:34.772Z,19.20
2017-11-10T04:10:02.436Z,20.50
2017-11-10T04:12:30.193Z,19.07
2017-11-10T04:14:59.493Z,19.50
2017-11-10T04:17:28.372Z,20.93
2017-11-10T04:19:58.658Z,18.00
2017-11-10T04:22:28.002Z,18.77
2017-11-10T04:24:56.751Z,18.60
2017-11-10T04:27:26.365Z,18.13
2017-11-10T04:29:55.927Z,16.40
2017-11-10T04:32:26.091Z,19.60
2017-11-10T04:34:57.025Z,19.10
2017-11-10T04:37:26.942Z,18.67
2017-11-10T04:39:57.000Z,20.90
2017-11-10T04:42:25.058Z,20.20
2017-11-10T04:44:52.820Z,19.00
2017-11-10T04:47:20.532Z,19.27
2017-11-10T04:49:48.187Z,18.80
2017-11-10T04:52:16.697Z,20.60
2017-11-10T04:54:44.415Z,21.27
2017-11-10T04:57:12.919Z,20.83
2017-11-10T04:59:40.592Z,19.53
2017-11-10T05:02:08.336Z,20.47
2017-11-10T05:04:36.025Z,21.90
2017-11-10T05:07:03.788Z,21.43
2017-11-10T05:09:31.465Z,20.80
2017-11-10T05:11:59.963Z,21.80
2017-11-10T05:14:28.413Z,20.57
2017-11-10T05:16:56.145Z,19.30
2017-11-10T05:19:23.852Z,20.50
2017-11-10T05:21:51.576Z,19.90
2017-11-10T05:24:19.277Z,21.07
2017-11-10T05:26:47.001Z,22.73
2017-11-10T05:29:14.677Z,21.93
2017-11-10T05:31:42.406Z,21.23
2017-11-10T05:34:10.159Z,20.70
2017-11-10T05:36:37.966Z,18.87
2017-11-10T05:39:05.680Z,20.83
2017-11-10T05:41:33.429Z,21.03
2017-11-10T05:44:01.963Z,21.33
2017-11-10T05:46:29.724Z,20.50
2017-11-10T05:48:57.399Z,22.00
2017-11-10T05:51:25.168Z,21.40
2017-11-10T05:53:52.934Z,19.90
2017-11-10T05:56:20.667Z,19.73
2017-11-10T05:58:48.448Z,19.30
2017-11-10T06:01:16.178Z,19.10
2017-11-10T06:03:43.984Z,21.00
2017-11-10T06:06:11.708Z,19.47
2017-11-10T06:08:39.445Z,20.30
2017-11-10T06:11:07.141Z,19.83
2017-11-10T06:13:34.879Z,20.20
2017-11-10T06:16:02.576Z,21.10
2017-11-10T06:18:30.317Z,22.07
2017-11-10T06:20:58.013Z,20.27
2017-11-10T06:23:26.505Z,20.57
2017-11-10T06:25:54.968Z,20.77
2017-11-10T06:28:23.481Z,20.73
2017-11-10T06:30:51.165Z,20.97
2017-11-10T06:33:18.900Z,21.90
2017-11-10T06:35:46.597Z,20.27
2017-11-10T06:38:14.338Z,22.10
2017-11-10T06:40:42.064Z,20.07
2017-11-10T06:43:10.568Z,21.70
2017-11-10T06:45:38.242Z,22.50
2017-11-10T06:48:05.993Z,22.50
2017-11-10T06:50:33.670Z,22.87
2017-11-10T06:53:01.409Z,20.50
2017-11-10T06:55:29.120Z,22.30
2017-11-10T06:57:56.844Z,21.47
2017-11-10T07:00:24.550Z,19.60
2017-11-10T07:02:53.063Z,21.73
2017-11-10T07:05:20.807Z,19.43
2017-11-10T07:07:48.515Z,20.93
2017-11-10T07:10:16.217Z,22.90
2017-11-10T07:12:44.735Z,21.40
2017-11-10T07:15:12.400Z,20.20
2017-11-10T07:17:40.104Z,19.63
2017-11-10T07:20:07.808Z,21.10
2017-11-10T07:22:35.512Z,21.20
2017-11-10T07:25:03.204Z,22.00
2017-11-10T07:27:31.668Z,21.23
2017-11-10T07:30:00.136Z,20.60
2017-11-10T07:32:27.818Z,20.53
2017-11-10T07:34:56.302Z,20.90
2017-11-10T07:37:23.962Z,20.73
2017-11-10T07:39:51.693Z,20.80
2017-11-10T07:42:20.123Z,20.97
2017-11-10T07:44:47.829Z,20.93
2017-11-10T07:47:15.624Z,20.37
2017-11-10T07:49:43.337Z,20.30
2017-11-10T07:52:11.005Z,18.80
2017-11-10T07:54:38.748Z,18.37
2017-11-10T07:57:06.456Z,18.83
2017-11-10T07:59:34.229Z,19.20
2017-11-10T08:02:01.927Z,19.00
2017-11-10T08:04:30.397Z,18.30
2017-11-10T08:06:58.056Z,19.03
2017-11-10T08:09:25.837Z,19.70
2017-11-10T08:11:53.505Z,18.37
2017-11-10T08:14:21.216Z,19.20
2017-11-10T08:16:48.884Z,18.57
2017-11-10T08:19:16.617Z,17.60
2017-11-10T08:21:45.047Z,19.03
2017-11-10T08:24:12.782Z,18.40
2017-11-10T08:26:40.453Z,19.10
2017-11-10T08:29:08.199Z,18.40
2017-11-10T08:31:35.869Z,17.40
2017-11-10T08:34:03.633Z,17.60
2017-11-10T08:36:31.321Z,17.37
2017-11-10T08:38:59.079Z,18.20
2017-11-10T08:41:26.752Z,17.90
2017-11-10T08:43:54.473Z,19.60
2017-11-10T08:46:22.906Z,17.63
2017-11-10T08:48:51.371Z,17.83
2017-11-10T08:51:19.035Z,17.37
2017-11-10T08:53:46.732Z,16.80
2017-11-10T08:56:14.383Z,18.23
2017-11-10T08:58:42.084Z,16.53
2017-11-10T09:01:09.745Z,16.93
2017-11-10T09:03:37.445Z,16.30
2017-11-10T09:06:05.897Z,18.10
2017-11-10T09:08:33.724Z,17.57
2017-11-10T09:11:01.389Z,17.60
2017-11-10T09:13:29.085Z,18.07
2017-11-10T09:15:56.748Z,17.83
2017-11-10T09:18:24.586Z,16.73
2017-11-10T09:20:52.277Z,17.60
2017-11-10T09:23:20.781Z,16.87
2017-11-10T09:25:48.528Z,16.80
2017-11-10T09:31:37.614Z,17.40
2017-11-10T09:34:09.889Z,18.07
2017-11-10T09:36:55.395Z,17.40
2017-11-10T09:39:28.764Z,17.13
2017-11-10T09:42:02.056Z,15.83
2017-11-10T09:44:35.321Z,16.43
2017-11-10T09:50:09.956Z,17.40
2017-11-10T09:52:54.155Z,17.43
2017-11-10T09:55:27.697Z,17.33
2017-11-10T09:58:17.029Z,16.33
2017-11-10T10:00:48.161Z,16.80
2017-11-10T10:03:15.854Z,15.60
2017-11-10T10:06:01.316Z,15.80
2017-11-10T10:08:38.911Z,14.67
2017-11-10T10:11:12.341Z,14.23
2017-11-10T10:16:50.425Z,15.57
2017-11-10T10:22:30.312Z,15.30
2017-11-10T10:24:58.733Z,14.00
2017-11-10T10:27:26.471Z,15.53
2017-11-10T10:29:54.128Z,13.63
2017-11-10T10:32:21.835Z,13.40
2017-11-10T10:34:49.582Z,12.77
2017-11-10T10:37:17.356Z,14.13
2017-11-10T10:39:45.032Z,13.57
2017-11-10T10:42:12.777Z,15.00
2017-11-10T10:44:40.495Z,14.23
2017-11-10T10:47:08.256Z,14.00
2017-11-10T10:49:35.943Z,13.40
2017-11-10T10:52:03.653Z,14.63
2017-11-10T10:54:32.094Z,14.23
2017-11-10T10:56:59.831Z,13.53
2017-11-10T10:59:27.541Z,13.20
2017-11-10T11:01:55.243Z,13.83
2017-11-10T11:04:22.912Z,15.07
2017-11-10T11:06:50.638Z,12.73
2017-11-10T11:09:19.113Z,12.80
2017-11-10T11:11:47.613Z,11.40
2017-11-10T11:14:15.304Z,12.90
2017-11-10T11:16:43.059Z,13.50
2017-11-10T11:19:10.712Z,12.80
2017-11-10T11:21:38.429Z,14.00
2017-11-10T11:24:06.916Z,13.57
2017-11-10T11:26:34.617Z,12.53
2017-11-10T11:29:02.312Z,12.37
2017-11-10T11:31:29.981Z,12.57
2017-11-10T11:33:57.681Z,11.53
2017-11-10T11:36:25.340Z,13.27
2017-11-10T11:38:53.039Z,12.70
2017-11-10T11:41:20.716Z,11.93
2017-11-10T11:43:48.419Z,11.50
2017-11-10T11:46:16.075Z,13.53
2017-11-10T11:48:43.805Z,12.60
2017-11-10T11:51:12.295Z,12.30
2017-11-10T11:53:40.818Z,12.50
2017-11-10T11:56:08.516Z,12.37
2017-11-10T11:58:36.276Z,13.77
2017-11-10T12:01:04.017Z,11.80
2017-11-10T12:03:31.723Z,13.67
2017-11-10T12:06:00.156Z,12.87
2017-11-10T12:08:29.391Z,11.60
2017-11-10T12:10:57.865Z,12.67
2017-11-10T12:13:26.377Z,11.60
2017-11-10T12:15:54.076Z,12.37
2017-11-10T12:18:21.842Z,12.40
2017-11-10T12:20:49.606Z,12.70
2017-11-10T12:23:17.420Z,12.50
2017-11-10T12:25:45.145Z,11.10
2017-11-10T12:28:13.690Z,11.73
2017-11-10T12:30:41.411Z,10.97
2017-11-10T12:33:09.201Z,9.83
2017-11-10T12:35:36.890Z,9.50
2017-11-10T12:38:04.673Z,10.67
2017-11-10T12:40:33.138Z,10.30
2017-11-10T12:43:01.653Z,9.40
2017-11-10T12:45:29.317Z,8.40
2017-11-10T12:47:57.068Z,8.53
2017-11-10T12:50:24.755Z,8.80
2017-11-10T12:52:52.510Z,8.20
2017-11-10T12:55:20.197Z,6.90
2017-11-10T12:57:47.940Z,7.60
2017-11-10T13:00:15.656Z,6.90
2017-11-10T13:02:44.133Z,6.83
2017-11-10T13:05:12.586Z,6.73
2017-11-10T13:07:40.330Z,8.37
2017-11-10T13:10:08.176Z,6.50
2017-11-10T13:12:35.931Z,7.80
2017-11-10T13:15:03.621Z,5.73
2017-11-10T13:17:31.348Z,5.57
2017-11-10T13:19:59.020Z,6.40
2017-11-10T13:22:26.754Z,7.20
2017-11-10T13:24:54.443Z,6.40
2017-11-10T13:27:22.168Z,6.90
2017-11-10T13:29:49.827Z,6.10
2017-11-10T13:32:17.559Z,6.87
2017-11-10T13:34:45.209Z,6.40
2017-11-10T13:37:12.869Z,6.40
2017-11-10T13:39:40.584Z,10.15
2017-11-10T13:42:08.241Z,6.33
2017-11-10T13:44:35.957Z,6.37
2017-11-10T13:47:03.703Z,6.50
2017-11-10T13:49:31.400Z,5.93
2017-11-10T13:51:59.819Z,6.27
2017-11-10T13:54:27.505Z,5.90
2017-11-10T13:56:55.254Z,6.17
2017-11-10T13:59:22.949Z,7.60
2017-11-10T14:01:51.377Z,6.10
2017-11-10T14:04:19.085Z,9.17
2017-11-10T14:06:47.508Z,6.57
2017-11-10T14:09:15.232Z,6.00
2017-11-10T14:11:43.701Z,7.20
2017-11-10T14:14:12.157Z,6.20
2017-11-10T14:16:39.817Z,6.87
2017-11-10T14:19:07.513Z,6.57
2017-11-10T14:21:35.937Z,6.90
2017-11-10T14:24:03.645Z,6.30
2017-11-10T14:26:32.060Z,6.63
2017-11-10T14:28:59.755Z,6.73
2017-11-10T14:31:27.411Z,6.73
2017-11-10T14:33:55.113Z,7.10
2017-11-10T14:36:22.769Z,7.27
2017-11-10T14:38:50.483Z,7.03
2017-11-10T14:41:18.140Z,7.47
2017-11-10T14:43:45.836Z,7.30
2017-11-10T14:46:14.266Z,7.63
2017-11-10T14:48:41.990Z,8.27
2017-11-10T14:51:09.654Z,8.53
2017-11-10T14:53:37.365Z,9.50
2017-11-10T14:56:05.034Z,11.57
2017-11-10T14:58:32.745Z,8.80
2017-11-10T15:01:00.408Z,9.70
2017-11-10T15:03:28.116Z,9.47
2017-11-10T15:05:55.820Z,9.40
2017-11-10T15:08:23.557Z,9.30
2017-11-10T15:10:52.087Z,9.13
2017-11-10T15:13:19.829Z,9.37
2017-11-10T15:15:47.520Z,9.03
2017-11-10T15:18:15.234Z,9.93
2017-11-10T15:20:42.925Z,9.00
2017-11-10T15:23:10.647Z,9.87
2017-11-10T15:25:38.320Z,8.30
2017-11-10T15:28:06.068Z,8.87
2017-11-10T15:30:33.769Z,10.10
2017-11-10T15:33:01.476Z,9.93
2017-11-10T15:35:29.936Z,9.47
2017-11-10T15:37:57.644Z,9.70
2017-11-10T15:40:25.363Z,10.03
2017-11-10T15:42:53.918Z,8.90
2017-11-10T15:45:21.596Z,9.23
2017-11-10T15:47:49.337Z,11.77
2017-11-10T15:50:17.009Z,9.57
2017-11-10T15:52:44.673Z,9.63
2017-11-10T15:55:12.404Z,9.70
2017-11-10T15:57:40.076Z,8.37
2017-11-10T16:00:07.862Z,8.67
2017-11-10T16:02:36.333Z,24.70
2017-11-10T16:05:04.033Z,14.40
2017-11-10T16:07:31.684Z,10.27
2017-11-10T16:09:59.378Z,8.93
2017-11-10T16:12:27.037Z,10.40
2017-11-10T16:14:54.737Z,10.03
2017-11-10T16:17:22.426Z,9.33
2017-11-10T16:19:50.145Z,9.27
2017-11-10T16:22:17.812Z,8.60
2017-11-10T16:24:45.531Z,9.47
2017-11-10T16:27:13.249Z,8.43
2017-11-10T16:29:41.736Z,9.70
2017-11-10T16:32:10.161Z,8.50
2017-11-10T16:34:37.855Z,9.53
2017-11-10T16:37:05.514Z,8.10
2017-11-10T16:39:33.207Z,9.10
2017-11-10T16:42:01.411Z,8.53
2017-11-10T16:44:29.108Z,9.40
2017-11-10T16:46:57.536Z,9.10
2017-11-10T16:49:25.290Z,8.27
2017-11-10T16:51:52.949Z,8.30
2017-11-10T16:54:20.665Z,8.70
2017-11-10T16:56:49.089Z,8.70
2017-11-10T16:59:16.785Z,8.70
2017-11-10T17:01:44.444Z,8.57
2017-11-10T17:04:12.140Z,8.33
2017-11-10T17:06:40.570Z,7.60
2017-11-10T17:09:08.289Z,7.67
2017-11-10T17:11:35.993Z,7.63
2017-11-10T17:14:04.549Z,8.10
2017-11-10T17:16:32.208Z,11.70
2017-11-10T17:18:59.915Z,5.40
2017-11-10T17:21:27.591Z,5.93
2017-11-10T17:23:56.064Z,6.10
2017-11-10T17:26:24.491Z,5.47
2017-11-10T17:28:52.187Z,6.30
2017-11-10T17:31:20.627Z,5.97
2017-11-10T17:33:48.357Z,5.40
2017-11-10T17:36:16.059Z,6.37
2017-11-10T17:38:43.789Z,5.33
2017-11-10T17:41:11.481Z,5.60
2017-11-10T17:43:39.273Z,5.40
2017-11-10T17:46:06.952Z,5.97
2017-11-10T17:48:35.440Z,5.23
2017-11-10T17:51:03.156Z,5.10
2017-11-10T17:53:30.895Z,5.27
2017-11-10T17:55:58.602Z,5.27
2017-11-10T17:58:27.108Z,5.67
2017-11-10T18:00:54.816Z,6.70
2017-11-10T18:03:22.533Z,6.57
2017-11-10T18:05:50.288Z,7.57
2017-11-10T18:08:18.033Z,9.50
2017-11-10T18:10:46.533Z,6.50
2017-11-10T18:13:14.432Z,7.37
2017-11-10T18:15:42.140Z,7.20
2017-11-10T18:18:10.585Z,5.60
2017-11-10T18:20:38.297Z,5.10
2017-11-10T18:23:06.014Z,5.17
2017-11-10T18:25:33.764Z,4.83
2017-11-10T18:28:01.436Z,4.30
2017-11-10T18:30:29.183Z,5.10
2017-11-10T18:32:56.881Z,5.87
2017-11-10T18:35:24.609Z,4.73
2017-11-10T18:37:52.346Z,5.40
2017-11-10T18:40:20.132Z,4.50
2017-11-10T18:42:47.822Z,4.20
2017-11-10T18:45:16.338Z,3.60
2017-11-10T18:47:44.060Z,4.30
2017-11-10T18:50:12.557Z,5.43
2017-11-10T18:52:40.218Z,5.60
2017-11-10T18:55:07.954Z,4.60
2017-11-10T18:57:36.406Z,4.93
2017-11-10T19:00:04.177Z,4.50
2017-11-10T19:02:31.885Z,4.53
2017-11-10T19:04:59.561Z,6.17
2017-11-10T19:07:27.320Z,9.80
2017-11-10T19:09:55.044Z,8.90
2017-11-10T19:12:22.754Z,6.90
2017-11-10T19:14:50.456Z,8.40
2017-11-10T19:17:18.955Z,7.63
2017-11-10T19:19:46.608Z,5.90
2017-11-10T19:22:14.314Z,5.33
2017-11-10T19:24:41.974Z,5.00
2017-11-10T19:27:09.689Z,4.20
2017-11-10T19:29:37.356Z,4.30
2017-11-10T19:32:05.102Z,4.53
2017-11-10T19:34:32.801Z,6.10
2017-11-10T19:37:00.532Z,8.10
2017-11-10T19:39:28.222Z,13.17
2017-11-10T19:41:55.940Z,5.40
2017-11-10T19:44:24.377Z,5.70
2017-11-10T19:46:52.121Z,6.43
2017-11-10T19:49:19.803Z,7.50
2017-11-10T19:51:47.566Z,6.97
2017-11-10T19:54:15.241Z,6.63
2017-11-10T19:56:43.731Z,6.20
2017-11-10T19:59:12.238Z,6.33
2017-11-10T20:01:39.920Z,5.70
2017-11-10T20:04:07.626Z,5.37
2017-11-10T20:06:36.044Z,4.80
2017-11-10T20:09:03.887Z,8.27
2017-11-10T20:11:31.577Z,7.90
2017-11-10T20:13:59.281Z,7.03
2017-11-10T20:16:27.703Z,6.57
2017-11-10T20:18:55.432Z,4.60
2017-11-10T20:21:23.848Z,4.40
2017-11-10T20:23:51.541Z,4.73
2017-11-10T20:26:19.218Z,3.30
2017-11-10T20:28:47.709Z,3.30
2017-11-10T20:31:16.134Z,3.00
2017-11-10T20:33:43.875Z,3.60
2017-11-10T20:36:11.555Z,4.37
2017-11-10T20:38:39.338Z,4.53
2017-11-10T20:41:07.028Z,3.63
2017-11-10T20:43:35.499Z,4.17
2017-11-10T20:46:03.980Z,4.17
2017-11-10T20:48:32.501Z,4.73
2017-11-10T20:51:00.168Z,4.20
2017-11-10T20:53:27.897Z,4.03
2017-11-10T20:55:55.588Z,4.10
2017-11-10T20:58:23.304Z,5.07
2017-11-10T21:00:51.021Z,4.87
2017-11-10T21:03:18.687Z,5.70
2017-11-10T21:05:46.385Z,5.40
2017-11-10T21:08:14.814Z,5.07
2017-11-10T21:10:42.514Z,6.07
2017-11-10T21:13:10.935Z,5.07
2017-11-10T21:15:38.631Z,6.70
2017-11-10T21:18:06.366Z,5.53
2017-11-10T21:20:34.952Z,4.77
2017-11-10T21:23:02.658Z,5.93
2017-11-10T21:25:31.164Z,5.57
2017-11-10T21:27:58.873Z,5.20
2017-11-10T21:30:26.604Z,4.80
2017-11-10T21:32:55.036Z,4.80
2017-11-10T21:35:23.500Z,4.50
2017-11-10T21:37:51.930Z,3.60
2017-11-10T21:40:19.632Z,3.60
2017-11-10T21:42:47.298Z,3.77
2017-11-10T21:45:15.774Z,3.27
2017-11-10T21:47:43.431Z,4.60
2017-11-10T21:50:11.141Z,4.43
2017-11-10T21:52:38.812Z,3.00
2017-11-10T21:55:06.548Z,3.93
2017-11-10T21:57:34.243Z,3.60
2017-11-10T22:00:01.947Z,3.13
2017-11-10T22:02:30.378Z,3.10
2017-11-10T22:04:58.081Z,3.63
2017-11-10T22:07:26.506Z,3.53
2017-11-10T22:09:54.200Z,4.20
2017-11-10T22:12:21.869Z,3.30
2017-11-10T22:14:50.344Z,3.70
2017-11-10T22:17:18.094Z,3.00
2017-11-10T22:19:45.805Z,2.70
2017-11-10T22:22:13.500Z,2.87
2017-11-10T22:24:41.240Z,2.97
2017-11-10T22:27:08.948Z,2.80
2017-11-10T22:29:37.449Z,2.37
2017-11-10T22:32:05.117Z,2.97
2017-11-10T22:34:32.820Z,2.03
2017-11-10T22:37:00.579Z,2.27
2017-11-10T22:39:28.240Z,3.00
2017-11-10T22:41:55.941Z,3.40
2017-11-10T22:44:24.362Z,3.57
2017-11-10T22:46:52.068Z,2.30
2017-11-10T22:49:20.506Z,3.00
2017-11-10T22:51:48.206Z,3.10
2017-11-10T22:54:16.648Z,3.07
2017-11-10T22:56:44.348Z,2.63
2017-11-10T22:59:12.772Z,3.50
2017-11-10T23:01:40.481Z,4.40
2017-11-10T23:04:08.903Z,2.70
2017-11-10T23:06:36.608Z,3.07
2017-11-10T23:09:04.328Z,3.07
2017-11-10T23:11:32.068Z,4.90
2017-11-10T23:13:59.733Z,3.77
2017-11-10T23:16:27.436Z,3.30
2017-11-10T23:18:55.195Z,4.50
2017-11-10T23:21:22.883Z,3.77
2017-11-10T23:23:51.309Z,3.80
2017-11-10T23:26:19.004Z,3.70
2017-11-10T23:28:46.658Z,3.50
2017-11-10T23:31:14.360Z,3.43
2017-11-10T23:33:42.025Z,3.57
2017-11-10T23:36:09.735Z,3.27
2017-11-10T23:38:37.389Z,3.10
2017-11-10T23:41:05.098Z,3.77
2017-11-10T23:43:32.753Z,3.13
2017-11-10T23:46:00.448Z,4.60
2017-11-10T23:48:28.100Z,3.77
2017-11-10T23:50:55.796Z,4.47
2017-11-10T23:53:23.457Z,4.10
2017-11-10T23:55:51.151Z,3.33
2017-11-10T23:58:18.804Z,3.90
